createdAt,value
2022-08-07T00:01:00.619Z,13.74
2022-08-07T00:04:25.882Z,13.68
2022-08-07T00:07:40.180Z,13.63
2022-08-07T00:10:47.855Z,13.53
2022-08-07T00:14:04.183Z,13.48
2022-08-07T00:17:10.305Z,13.44
2022-08-07T00:20:29.923Z,13.38
2022-08-07T00:23:41.556Z,13.38
2022-08-07T00:26:59.026Z,13.34
2022-08-07T00:30:26.832Z,13.29
2022-08-07T00:33:34.253Z,13.23
2022-08-07T00:36:42.985Z,13.18
2022-08-07T00:39:54.373Z,13.13
2022-08-07T00:43:00.308Z,13.03
2022-08-07T00:46:07.998Z,13.07
2022-08-07T00:49:24.924Z,12.99
2022-08-07T00:52:39.466Z,13.03
2022-08-07T00:56:00.355Z,13.00
2022-08-07T00:59:09.899Z,12.95
2022-08-07T01:02:28.473Z,12.94
2022-08-07T01:05:36.519Z,12.94
2022-08-07T01:08:52.074Z,13.15
2022-08-07T01:12:10.184Z,13.25
2022-08-07T01:16:00.422Z,13.17
2022-08-07T01:18:53.223Z,13.09
2022-08-07T01:22:03.250Z,12.99
2022-08-07T01:25:40.410Z,12.97
2022-08-07T01:28:46.025Z,12.92
2022-08-07T01:31:59.623Z,12.87
2022-08-07T01:35:08.411Z,12.79
2022-08-07T01:38:25.156Z,12.75
2022-08-07T01:41:34.619Z,12.74
2022-08-07T01:44:41.996Z,12.88
2022-08-07T01:48:20.976Z,13.07
2022-08-07T01:51:58.673Z,13.10
2022-08-07T01:54:47.912Z,13.17
2022-08-07T01:58:06.562Z,13.14
2022-08-07T02:01:59.931Z,13.02
2022-08-07T02:04:57.691Z,13.09
2022-08-07T02:08:11.286Z,13.20
2022-08-07T02:11:31.128Z,13.30
2022-08-07T02:14:53.471Z,13.23
2022-08-07T02:18:10.878Z,13.09
2022-08-07T02:21:18.407Z,12.98
2022-08-07T02:24:25.391Z,12.93
2022-08-07T02:27:37.287Z,12.84
2022-08-07T02:30:47.388Z,12.79
2022-08-07T02:34:04.022Z,12.69
2022-08-07T02:37:20.963Z,12.69
2022-08-07T02:40:30.442Z,12.77
2022-08-07T02:43:43.800Z,12.65
2022-08-07T02:46:56.614Z,12.61
2022-08-07T02:50:02.609Z,12.48
2022-08-07T02:53:16.166Z,12.54
2022-08-07T02:56:24.070Z,12.47
2022-08-07T02:59:35.346Z,12.47
2022-08-07T03:02:55.060Z,12.41
2022-08-07T03:06:02.949Z,12.35
2022-08-07T03:09:11.317Z,12.36
2022-08-07T03:12:22.690Z,12.35
2022-08-07T03:15:47.986Z,12.33
2022-08-07T03:19:03.461Z,12.34
2022-08-07T03:22:18.904Z,12.35
2022-08-07T03:25:25.473Z,12.36
2022-08-07T03:28:37.729Z,12.47
2022-08-07T03:31:50.044Z,12.56
2022-08-07T03:35:16.906Z,12.55
2022-08-07T03:38:29.883Z,12.52
2022-08-07T03:41:42.475Z,12.54
2022-08-07T03:44:57.767Z,12.54
2022-08-07T03:48:10.013Z,12.53
2022-08-07T03:51:17.474Z,12.50
2022-08-07T03:54:35.590Z,12.36
2022-08-07T03:58:34.439Z,12.37
2022-08-07T04:01:20.885Z,12.42
2022-08-07T04:04:32.775Z,12.40
2022-08-07T04:07:46.823Z,12.43
2022-08-07T04:12:21.312Z,12.49
2022-08-07T04:14:38.751Z,12.50
2022-08-07T04:18:31.274Z,12.55
2022-08-07T04:21:17.437Z,12.65
2022-08-07T04:24:30.582Z,12.61
2022-08-07T04:27:44.317Z,12.60
2022-08-07T04:30:57.098Z,12.53
2022-08-07T04:34:16.612Z,12.45
2022-08-07T04:37:24.957Z,12.38
2022-08-07T04:40:35.732Z,12.35
2022-08-07T04:44:13.090Z,12.32
2022-08-07T04:47:58.893Z,12.38
2022-08-07T04:51:05.781Z,12.43
2022-08-07T04:54:29.958Z,12.45
2022-08-07T04:58:11.026Z,12.47
2022-08-07T05:01:18.839Z,12.58
2022-08-07T05:04:35.905Z,12.56
2022-08-07T05:07:56.938Z,12.62
2022-08-07T05:11:12.008Z,12.74
2022-08-07T05:14:55.526Z,12.83
2022-08-07T05:18:00.454Z,13.00
2022-08-07T05:21:10.770Z,13.05
2022-08-07T05:24:18.731Z,13.17
2022-08-07T05:28:16.807Z,13.39
2022-08-07T05:31:00.966Z,13.59
2022-08-07T05:34:11.647Z,13.81
2022-08-07T05:37:25.321Z,14.01
2022-08-07T05:40:50.584Z,14.25
2022-08-07T05:44:08.081Z,14.39
2022-08-07T05:47:19.950Z,14.64
2022-08-07T05:50:28.950Z,14.80
2022-08-07T05:54:13.345Z,15.04
2022-08-07T05:57:00.315Z,15.38
2022-08-07T06:00:09.286Z,15.60
2022-08-07T06:03:53.769Z,15.82
2022-08-07T06:07:03.769Z,15.99
2022-08-07T06:10:15.103Z,16.07
2022-08-07T06:14:10.951Z,16.30
2022-08-07T06:16:55.883Z,16.60
2022-08-07T06:20:12.375Z,16.92
2022-08-07T06:23:46.465Z,17.09
2022-08-07T06:26:43.705Z,17.38
2022-08-07T06:29:50.076Z,17.55
2022-08-07T06:32:56.676Z,17.74
2022-08-07T06:36:06.526Z,17.94
2022-08-07T06:40:16.174Z,18.00
2022-08-07T06:42:54.565Z,18.24
2022-08-07T06:46:31.516Z,18.47
2022-08-07T06:49:50.915Z,18.60
2022-08-07T06:53:04.324Z,18.78
2022-08-07T06:56:15.261Z,19.05
2022-08-07T07:00:13.246Z,19.03
2022-08-07T07:02:58.049Z,19.34
2022-08-07T07:06:11.129Z,19.27
2022-08-07T07:09:17.379Z,19.48
2022-08-07T07:12:54.511Z,19.73
2022-08-07T07:16:05.176Z,19.82
2022-08-07T07:19:55.204Z,19.83
2022-08-07T07:24:09.777Z,20.16
2022-08-07T07:26:34.133Z,20.06
2022-08-07T07:30:09.430Z,20.27
2022-08-07T07:33:13.655Z,20.15
2022-08-07T07:36:22.898Z,20.51
2022-08-07T07:39:52.048Z,20.79
2022-08-07T07:43:11.662Z,20.70
2022-08-07T07:46:40.233Z,20.54
2022-08-07T07:50:35.099Z,20.41
2022-08-07T07:53:25.778Z,20.69
2022-08-07T07:56:33.410Z,21.07
2022-08-07T07:59:52.548Z,21.02
2022-08-07T08:03:05.722Z,21.13
2022-08-07T08:06:13.462Z,21.25
2022-08-07T08:09:22.911Z,21.17
2022-08-07T08:12:52.024Z,21.42
2022-08-07T08:16:01.739Z,21.49
2022-08-07T08:19:18.170Z,21.99
2022-08-07T08:22:58.356Z,21.99
2022-08-07T08:26:23.552Z,22.01
2022-08-07T08:29:37.361Z,22.55
2022-08-07T08:33:03.029Z,21.66
2022-08-07T08:36:12.929Z,22.41
2022-08-07T08:39:22.581Z,22.34
2022-08-07T08:42:32.793Z,22.55
2022-08-07T08:46:00.662Z,22.61
2022-08-07T08:49:14.633Z,22.95
2022-08-07T08:52:32.268Z,22.79
2022-08-07T08:55:54.276Z,22.76
2022-08-07T08:59:12.903Z,22.52
2022-08-07T09:02:34.717Z,22.39
2022-08-07T09:05:47.776Z,22.13
2022-08-07T09:09:01.624Z,22.41
2022-08-07T09:12:20.007Z,23.14
2022-08-07T09:16:22.942Z,23.12
2022-08-07T09:19:51.106Z,23.47
2022-08-07T09:24:33.530Z,23.47
2022-08-07T09:26:47.801Z,23.38
2022-08-07T09:30:03.182Z,23.60
2022-08-07T09:33:40.928Z,22.72
2022-08-07T09:36:59.408Z,23.57
2022-08-07T09:40:10.524Z,23.25
2022-08-07T09:43:40.604Z,23.42
2022-08-07T09:47:50.934Z,23.55
2022-08-07T09:50:37.290Z,23.42
2022-08-07T09:53:56.219Z,23.67
2022-08-07T09:57:18.780Z,23.90
2022-08-07T10:00:33.265Z,24.51
2022-08-07T10:04:05.214Z,24.76
2022-08-07T10:07:31.815Z,24.30
2022-08-07T10:11:17.277Z,24.66
2022-08-07T10:14:43.716Z,25.17
2022-08-07T10:18:26.666Z,24.56
2022-08-07T10:22:12.516Z,25.03
2022-08-07T10:25:22.863Z,25.17
2022-08-07T10:28:55.263Z,24.85
2022-08-07T10:32:51.291Z,24.98
2022-08-07T10:36:05.491Z,25.03
2022-08-07T10:39:42.129Z,24.81
2022-08-07T10:43:05.832Z,25.02
2022-08-07T10:46:19.070Z,24.38
2022-08-07T10:49:49.197Z,24.87
2022-08-07T10:53:10.389Z,24.80
2022-08-07T10:56:31.132Z,24.53
2022-08-07T10:59:52.735Z,25.40
2022-08-07T11:03:11.176Z,24.92
2022-08-07T11:06:22.949Z,24.97
2022-08-07T11:10:07.209Z,24.94
2022-08-07T11:14:42.665Z,24.96
2022-08-07T11:16:38.231Z,25.25
2022-08-07T11:19:51.989Z,25.62
2022-08-07T11:23:09.227Z,25.89
2022-08-07T11:26:21.138Z,26.00
2022-08-07T11:29:43.596Z,25.46
2022-08-07T11:32:58.553Z,25.39
2022-08-07T11:36:20.463Z,25.55
2022-08-07T11:40:03.581Z,25.61
2022-08-07T11:43:16.138Z,24.94
2022-08-07T11:46:44.756Z,24.97
2022-08-07T11:50:31.306Z,25.52
2022-08-07T11:53:43.426Z,25.53
2022-08-07T11:57:59.938Z,26.36
2022-08-07T12:01:05.117Z,25.25
2022-08-07T12:04:29.319Z,25.92
2022-08-07T12:07:40.158Z,26.55
2022-08-07T12:11:08.162Z,26.07
2022-08-07T12:14:24.582Z,26.10
2022-08-07T12:17:59.247Z,26.13
2022-08-07T12:21:55.143Z,26.64
2022-08-07T12:25:07.831Z,26.87
2022-08-07T12:28:31.098Z,26.27
2022-08-07T12:32:01.924Z,26.45
2022-08-07T12:35:12.950Z,26.66
2022-08-07T12:38:36.842Z,26.83
2022-08-07T12:41:51.618Z,26.05
2022-08-07T12:45:05.676Z,26.19
2022-08-07T12:48:27.651Z,26.21
2022-08-07T12:52:11.985Z,25.57
2022-08-07T12:55:16.601Z,26.46
2022-08-07T12:58:28.273Z,26.30
2022-08-07T13:01:58.365Z,26.34
2022-08-07T13:06:02.814Z,26.35
2022-08-07T13:08:52.712Z,26.56
2022-08-07T13:12:10.210Z,26.45
2022-08-07T13:15:29.349Z,26.46
2022-08-07T13:18:49.018Z,27.28
2022-08-07T13:22:09.714Z,28.00
2022-08-07T13:25:32.222Z,27.00
2022-08-07T13:28:42.646Z,27.17
2022-08-07T13:32:00.158Z,27.44
2022-08-07T13:36:00.733Z,28.68
2022-08-07T13:39:12.910Z,29.55
2022-08-07T13:42:28.875Z,29.20
2022-08-07T13:46:12.897Z,28.62
2022-08-07T13:49:08.885Z,28.38
2022-08-07T13:52:40.833Z,27.95
2022-08-07T13:55:54.810Z,28.10
2022-08-07T13:59:05.627Z,27.94
2022-08-07T14:02:29.704Z,27.65
2022-08-07T14:05:46.283Z,27.38
2022-08-07T14:08:58.910Z,27.15
2022-08-07T14:12:27.411Z,26.98
2022-08-07T14:15:39.315Z,26.87
2022-08-07T14:18:49.733Z,26.74
2022-08-07T14:22:12.467Z,26.96
2022-08-07T14:25:29.448Z,25.84
2022-08-07T14:28:57.730Z,26.30
2022-08-07T14:32:09.252Z,26.64
2022-08-07T14:35:45.664Z,26.92
2022-08-07T14:38:50.476Z,27.23
2022-08-07T14:42:20.013Z,26.60
2022-08-07T14:45:46.896Z,26.13
2022-08-07T14:48:56.464Z,26.12
2022-08-07T14:52:10.329Z,25.59
2022-08-07T14:55:17.474Z,24.57
2022-08-07T14:58:28.670Z,24.24
2022-08-07T15:05:19.659Z,24.16
2022-08-07T15:08:32.411Z,23.96
2022-08-07T15:11:54.304Z,23.54
2022-08-07T15:15:21.044Z,23.89
2022-08-07T15:18:40.220Z,23.87
2022-08-07T15:22:03.971Z,24.23
2022-08-07T15:28:42.139Z,24.04
2022-08-07T15:36:00.759Z,26.37
2022-08-07T15:38:59.138Z,26.63
2022-08-07T15:42:45.602Z,28.21
2022-08-07T15:45:56.230Z,29.05
2022-08-07T15:52:39.588Z,28.56
2022-08-07T15:56:02.018Z,28.37
2022-08-07T15:59:16.518Z,28.79
2022-08-07T16:02:26.687Z,28.79
2022-08-07T16:05:36.550Z,29.00
2022-08-07T16:08:45.781Z,27.89
2022-08-07T16:12:04.090Z,28.14
2022-08-07T16:15:54.521Z,27.12
2022-08-07T16:19:10.098Z,25.22
2022-08-07T16:22:54.939Z,25.50
2022-08-07T16:26:08.467Z,25.03
2022-08-07T16:30:09.541Z,24.82
2022-08-07T16:34:02.073Z,25.17
2022-08-07T16:37:01.961Z,25.88
2022-08-07T16:40:35.029Z,26.01
2022-08-07T16:44:08.598Z,26.66
2022-08-07T16:47:55.928Z,25.90
2022-08-07T16:51:57.756Z,25.24
2022-08-07T16:54:55.542Z,25.90
2022-08-07T16:58:04.383Z,24.98
2022-08-07T17:01:35.910Z,25.21
2022-08-07T17:06:01.943Z,25.75
2022-08-07T17:09:09.512Z,24.10
2022-08-07T17:12:35.582Z,23.30
2022-08-07T17:15:54.310Z,22.71
2022-08-07T17:19:15.851Z,22.68
2022-08-07T17:22:30.152Z,22.35
2022-08-07T17:25:57.157Z,22.30
2022-08-07T17:29:09.665Z,22.08
2022-08-07T17:32:52.204Z,21.95
2022-08-07T17:36:04.473Z,21.94
2022-08-07T17:39:22.627Z,21.98
2022-08-07T17:42:34.095Z,21.81
2022-08-07T17:45:44.715Z,21.59
2022-08-07T17:49:15.010Z,21.57
2022-08-07T17:52:39.588Z,21.39
2022-08-07T17:55:55.718Z,21.40
2022-08-07T17:59:16.851Z,21.23
2022-08-07T18:02:31.226Z,21.22
2022-08-07T18:06:01.959Z,21.07
2022-08-07T18:10:04.602Z,21.08
2022-08-07T18:13:26.168Z,20.99
2022-08-07T18:16:58.836Z,20.90
2022-08-07T18:21:06.658Z,20.83
2022-08-07T18:23:55.753Z,20.76
2022-08-07T18:27:38.082Z,20.68
2022-08-07T18:30:59.449Z,20.55
2022-08-07T18:34:37.149Z,20.47
2022-08-07T18:38:57.997Z,20.40
2022-08-07T18:41:45.107Z,20.25
2022-08-07T18:45:44.582Z,20.15
2022-08-07T18:49:23.759Z,20.10
2022-08-07T18:52:35.608Z,19.97
2022-08-07T18:55:56.066Z,19.91
2022-08-07T18:59:47.823Z,19.82
2022-08-07T19:03:12.034Z,19.72
2022-08-07T19:06:34.144Z,19.57
2022-08-07T19:09:56.122Z,19.52
2022-08-07T19:13:10.136Z,19.44
2022-08-07T19:17:00.689Z,19.33
2022-08-07T19:20:04.811Z,19.19
2022-08-07T19:23:19.404Z,19.12
2022-08-07T19:27:09.069Z,19.00
2022-08-07T19:31:03.178Z,18.93
2022-08-07T19:33:46.950Z,18.88
2022-08-07T19:37:17.128Z,18.80
2022-08-07T19:40:31.771Z,18.72
2022-08-07T19:43:51.251Z,18.64
2022-08-07T19:47:08.325Z,18.64
2022-08-07T19:50:44.552Z,18.55
2022-08-07T19:54:31.668Z,18.51
2022-08-07T19:58:00.720Z,18.46
2022-08-07T20:00:59.454Z,18.43
2022-08-07T20:04:08.578Z,18.33
2022-08-07T20:07:48.192Z,18.20
2022-08-07T20:10:55.896Z,18.19
2022-08-07T20:14:07.279Z,18.12
2022-08-07T20:17:21.014Z,18.06
2022-08-07T20:20:29.769Z,18.01
2022-08-07T20:23:42.169Z,17.93
2022-08-07T20:26:52.374Z,17.73
2022-08-07T20:30:02.233Z,17.73
2022-08-07T20:33:37.011Z,17.67
2022-08-07T20:36:43.885Z,17.59
2022-08-07T20:40:03.769Z,17.55
2022-08-07T20:43:14.651Z,17.51
2022-08-07T20:46:32.243Z,17.46
2022-08-07T20:49:59.191Z,17.46
2022-08-07T20:53:13.413Z,17.36
2022-08-07T20:56:26.260Z,17.39
2022-08-07T21:00:07.582Z,17.33
2022-08-07T21:03:05.748Z,17.31
2022-08-07T21:06:25.752Z,17.23
2022-08-07T21:09:52.453Z,17.18
2022-08-07T21:13:07.451Z,17.10
2022-08-07T21:16:15.969Z,17.05
2022-08-07T21:19:32.152Z,16.95
2022-08-07T21:22:55.425Z,16.95
2022-08-07T21:26:08.117Z,16.98
2022-08-07T21:29:19.287Z,16.92
2022-08-07T21:32:46.569Z,16.86
2022-08-07T21:36:05.277Z,16.73
2022-08-07T21:39:46.173Z,16.72
2022-08-07T21:42:55.870Z,16.68
2022-08-07T21:46:25.100Z,16.65
2022-08-07T21:50:03.041Z,16.60
2022-08-07T21:53:13.834Z,16.56
2022-08-07T21:56:36.716Z,16.49
2022-08-07T22:00:05.226Z,16.43
2022-08-07T22:03:30.951Z,16.36
2022-08-07T22:06:45.048Z,16.34
2022-08-07T22:09:55.404Z,16.33
2022-08-07T22:13:03.490Z,16.27
2022-08-07T22:16:43.090Z,16.28
2022-08-07T22:20:02.602Z,16.22
2022-08-07T22:23:18.291Z,16.19
2022-08-07T22:26:31.636Z,16.09
2022-08-07T22:29:48.329Z,15.99
2022-08-07T22:33:05.624Z,15.91
2022-08-07T22:36:23.685Z,15.84
2022-08-07T22:39:53.432Z,15.70
2022-08-07T22:43:04.190Z,15.62
2022-08-07T22:47:02.371Z,15.70
2022-08-07T22:50:20.770Z,15.68
2022-08-07T22:54:07.301Z,15.66
2022-08-07T22:57:37.438Z,15.63
2022-08-07T23:01:05.409Z,15.52
2022-08-07T23:04:30.108Z,15.47
2022-08-07T23:07:53.434Z,15.38
2022-08-07T23:11:19.048Z,15.43
2022-08-07T23:14:36.002Z,15.44
2022-08-07T23:18:09.416Z,15.35
2022-08-07T23:21:29.963Z,15.37
2022-08-07T23:24:47.672Z,15.41
2022-08-07T23:28:22.013Z,15.47
2022-08-07T23:34:18.860Z,15.41
2022-08-07T23:35:16.709Z,15.25
2022-08-07T23:38:36.880Z,15.22
2022-08-07T23:42:07.432Z,15.22
2022-08-07T23:45:33.413Z,15.18
2022-08-07T23:49:16.501Z,15.00
2022-08-07T23:52:59.939Z,14.85
2022-08-07T23:56:06.385Z,14.94
